Time;durP1;ratioP1;P1;durP2;ratioP2;P2;SDS_P1;SDS_P2;PMS_P1;PMS_P2;Temp;Humidity;BMP_temperature;BMP_pressure;BME280_temperature;BME280_humidity;BME280_pressure;Samples;Min_cycle;Max_cycle;Signal;HPM_P1;HPM_P2
2021/07/08 00:00:10;;;;;;;5.30;3.85;;;;;;;;;;5060997;28;20110;-85
2021/07/08 00:02:55;;;;;;;3.83;3.42;;;;;;;;;;5062885;28;20067;-85
2021/07/08 00:05:40;;;;;;;5.15;3.67;;;;;;;;;;5043146;28;20052;-85
2021/07/08 00:08:25;;;;;;;4.30;3.65;;;;;;;;;;5045933;28;20533;-85
2021/07/08 00:11:09;;;;;;;4.85;3.33;;;;;;;;;;5048217;28;20120;-87
2021/07/08 00:13:54;;;;;;;4.63;3.58;;;;;;;;;;5062727;28;20040;-86
2021/07/08 00:16:39;;;;;;;5.03;3.22;;;;;;;;;;5062569;28;20051;-84
2021/07/08 00:19:23;;;;;;;5.00;3.95;;;;;;;;;;5062487;28;20060;-85
2021/07/08 00:22:08;;;;;;;5.18;3.70;;;;;;;;;;5063830;28;20101;-86
2021/07/08 00:24:52;;;;;;;5.15;3.70;;;;;;;;;;5049059;28;20451;-85
2021/07/08 00:27:37;;;;;;;4.47;3.45;;;;;;;;;;5048490;28;20078;-86
2021/07/08 00:30:22;;;;;;;4.13;3.50;;;;;;;;;;5060736;28;20043;-86
2021/07/08 00:33:07;;;;;;;4.50;3.42;;;;;;;;;;5064184;28;20039;-86
2021/07/08 00:35:52;;;;;;;4.28;3.50;;;;;;;;;;5036865;28;20038;-86
2021/07/08 00:38:36;;;;;;;4.80;3.33;;;;;;;;;;5048582;28;20036;-86
2021/07/08 00:41:21;;;;;;;4.25;3.42;;;;;;;;;;5064030;28;20087;-84
2021/07/08 00:44:06;;;;;;;4.22;3.53;;;;;;;;;;5048696;28;20039;-86
2021/07/08 00:46:50;;;;;;;4.50;3.65;;;;;;;;;;5065613;28;20038;-86
2021/07/08 00:49:35;;;;;;;4.32;3.35;;;;;;;;;;5066295;28;20503;-86
2021/07/08 00:52:19;;;;;;;4.75;3.25;;;;;;;;;;5066788;28;20052;-86
2021/07/08 00:55:04;;;;;;;4.65;3.38;;;;;;;;;;5068144;28;20047;-86
2021/07/08 00:57:55;;;;;;;4.70;3.33;;;;;;;;;;5066626;28;20777;-86
2021/07/08 01:00:39;;;;;;;4.10;3.03;;;;;;;;;;5057005;28;20036;-87
2021/07/08 01:03:24;;;;;;;4.38;3.40;;;;;;;;;;5052023;28;20040;-86
2021/07/08 01:06:09;;;;;;;5.35;3.58;;;;;;;;;;5043960;28;20087;-87
2021/07/08 01:08:54;;;;;;;4.25;3.10;;;;;;;;;;5051205;28;20086;-84
2021/07/08 01:11:39;;;;;;;4.68;3.20;;;;;;;;;;5038383;28;20190;-87
2021/07/08 01:14:23;;;;;;;4.60;3.22;;;;;;;;;;5064947;28;20547;-85
2021/07/08 01:17:08;;;;;;;4.47;3.28;;;;;;;;;;5056092;28;20059;-86
2021/07/08 01:19:53;;;;;;;3.45;2.75;;;;;;;;;;5065495;28;20051;-86
2021/07/08 01:22:39;;;;;;;4.55;3.33;;;;;;;;;;5065533;28;20027;-85
2021/07/08 01:25:24;;;;;;;4.22;2.90;;;;;;;;;;5046014;28;20230;-85
2021/07/08 01:28:09;;;;;;;4.97;3.10;;;;;;;;;;5059969;28;20039;-86
2021/07/08 01:30:54;;;;;;;4.30;2.90;;;;;;;;;;5051404;28;20093;-86
2021/07/08 01:33:38;;;;;;;4.30;3.40;;;;;;;;;;5065173;28;20039;-85
2021/07/08 01:36:23;;;;;;;4.97;3.33;;;;;;;;;;5045521;28;20528;-86
2021/07/08 01:39:07;;;;;;;4.50;3.17;;;;;;;;;;5035630;28;20060;-84
2021/07/08 01:41:52;;;;;;;4.10;2.92;;;;;;;;;;5066243;28;20085;-86
2021/07/08 01:44:37;;;;;;;4.63;3.30;;;;;;;;;;5065553;28;20094;-86
2021/07/08 01:47:22;;;;;;;4.82;3.20;;;;;;;;;;5050812;28;20044;-86
2021/07/08 01:50:07;;;;;;;4.00;3.17;;;;;;;;;;5068688;28;20086;-86
2021/07/08 01:52:52;;;;;;;4.13;2.85;;;;;;;;;;5067994;28;20130;-86
2021/07/08 01:55:36;;;;;;;3.72;2.88;;;;;;;;;;5067410;28;20043;-85
2021/07/08 01:58:21;;;;;;;4.15;2.85;;;;;;;;;;5071930;28;20590;-86
2021/07/08 02:01:05;;;;;;;4.95;3.25;;;;;;;;;;5053081;28;20120;-86
2021/07/08 02:03:50;;;;;;;3.80;3.00;;;;;;;;;;5053635;28;20040;-86
2021/07/08 02:06:35;;;;;;;4.45;2.85;;;;;;;;;;5033636;28;20118;-86
2021/07/08 02:09:19;;;;;;;4.72;2.80;;;;;;;;;;5044205;28;20040;-86
2021/07/08 02:12:04;;;;;;;5.97;3.30;;;;;;;;;;5067340;28;20457;-86
2021/07/08 02:14:49;;;;;;;4.13;2.75;;;;;;;;;;5047692;28;20039;-86
2021/07/08 02:17:33;;;;;;;5.20;2.97;;;;;;;;;;5056937;28;20620;-86
2021/07/08 02:20:17;;;;;;;4.20;2.70;;;;;;;;;;5053046;28;20062;-85
2021/07/08 02:23:02;;;;;;;4.25;3.08;;;;;;;;;;5042777;28;20089;-86
2021/07/08 02:25:47;;;;;;;4.07;2.88;;;;;;;;;;5053617;28;20409;-85
2021/07/08 02:28:31;;;;;;;4.63;2.83;;;;;;;;;;5067795;28;20074;-85
2021/07/08 02:31:16;;;;;;;5.60;2.90;;;;;;;;;;5067216;28;20040;-85
2021/07/08 02:34:01;;;;;;;4.50;3.00;;;;;;;;;;5066396;28;20047;-85
2021/07/08 02:36:45;;;;;;;3.92;2.53;;;;;;;;;;5047257;28;20039;-84
2021/07/08 02:39:30;;;;;;;5.18;3.00;;;;;;;;;;5036847;28;20499;-86
2021/07/08 02:42:15;;;;;;;5.07;3.08;;;;;;;;;;5052811;28;20097;-85
2021/07/08 02:44:59;;;;;;;5.63;3.03;;;;;;;;;;5066442;28;20039;-86
2021/07/08 02:47:44;;;;;;;4.65;3.08;;;;;;;;;;5057663;28;20070;-86
2021/07/08 02:50:30;;;;;;;4.22;2.70;;;;;;;;;;5066472;28;20514;-85
2021/07/08 02:53:14;;;;;;;4.13;2.70;;;;;;;;;;5062341;28;20416;-85
2021/07/08 02:55:59;;;;;;;4.50;2.83;;;;;;;;;;5032663;28;20048;-85
2021/07/08 02:58:44;;;;;;;4.80;2.90;;;;;;;;;;5060582;28;20046;-85
2021/07/08 03:01:28;;;;;;;4.38;2.95;;;;;;;;;;5067529;28;20047;-86
2021/07/08 03:04:12;;;;;;;5.10;3.17;;;;;;;;;;5066041;28;20036;-85
2021/07/08 03:06:57;;;;;;;5.05;3.42;;;;;;;;;;5066364;28;20075;-85
2021/07/08 03:09:41;;;;;;;5.20;2.95;;;;;;;;;;5062048;28;20144;-84
2021/07/08 03:12:26;;;;;;;5.18;2.58;;;;;;;;;;5052074;28;20130;-85
2021/07/08 03:15:11;;;;;;;6.65;3.28;;;;;;;;;;5066519;28;20035;-86
2021/07/08 03:17:57;;;;;;;4.30;2.80;;;;;;;;;;5044170;28;20036;-85
2021/07/08 03:20:45;;;;;;;4.78;2.78;;;;;;;;;;5052004;28;20086;-86
2021/07/08 03:23:31;;;;;;;5.45;2.92;;;;;;;;;;5042591;28;20090;-85
2021/07/08 03:26:15;;;;;;;5.70;3.13;;;;;;;;;;5052019;28;20730;-86
2021/07/08 03:29:00;;;;;;;5.72;2.97;;;;;;;;;;5066015;28;20472;-85
2021/07/08 03:31:45;;;;;;;4.28;2.90;;;;;;;;;;5066268;28;20039;-86
2021/07/08 03:34:30;;;;;;;5.88;3.13;;;;;;;;;;5065776;28;20480;-85
2021/07/08 03:37:14;;;;;;;5.53;2.97;;;;;;;;;;5051976;28;20063;-85
2021/07/08 03:39:59;;;;;;;5.13;2.90;;;;;;;;;;5051960;28;20055;-85
2021/07/08 03:42:44;;;;;;;4.55;2.90;;;;;;;;;;5051922;28;20125;-86
2021/07/08 03:45:28;;;;;;;6.45;3.10;;;;;;;;;;5065778;28;20067;-86
2021/07/08 03:48:13;;;;;;;6.78;3.38;;;;;;;;;;5065992;28;20161;-86
2021/07/08 03:50:58;;;;;;;6.05;3.40;;;;;;;;;;5066185;28;20043;-86
2021/07/08 03:53:42;;;;;;;4.53;2.70;;;;;;;;;;5066011;28;20039;-86
2021/07/08 03:56:28;;;;;;;5.10;2.83;;;;;;;;;;5046191;28;20094;-86
2021/07/08 03:59:12;;;;;;;5.15;3.10;;;;;;;;;;5046210;28;20464;-86
2021/07/08 04:01:57;;;;;;;5.03;2.97;;;;;;;;;;5060305;28;20048;-86
2021/07/08 04:04:42;;;;;;;5.78;3.00;;;;;;;;;;5039744;28;20040;-86
2021/07/08 04:07:26;;;;;;;5.47;2.95;;;;;;;;;;5045783;28;20040;-86
2021/07/08 04:10:11;;;;;;;5.07;2.80;;;;;;;;;;5066303;28;20405;-85
2021/07/08 04:12:56;;;;;;;5.28;2.92;;;;;;;;;;5051810;28;20512;-86
2021/07/08 04:15:41;;;;;;;5.63;2.90;;;;;;;;;;5066957;28;20086;-85
2021/07/08 04:18:25;;;;;;;5.00;3.08;;;;;;;;;;5065344;28;20031;-86
2021/07/08 04:21:10;;;;;;;5.63;3.50;;;;;;;;;;5066382;28;20052;-84
2021/07/08 04:23:54;;;;;;;5.07;2.92;;;;;;;;;;5055659;28;20502;-86
2021/07/08 04:26:39;;;;;;;5.65;2.85;;;;;;;;;;5055762;28;20454;-86
2021/07/08 04:29:24;;;;;;;5.07;2.90;;;;;;;;;;5069621;28;20062;-86
2021/07/08 04:32:08;;;;;;;5.13;3.17;;;;;;;;;;5070505;28;20109;-86
2021/07/08 04:34:53;;;;;;;5.72;3.10;;;;;;;;;;5070760;28;20039;-86
2021/07/08 04:37:41;;;;;;;6.32;3.05;;;;;;;;;;5055361;28;20074;-85
2021/07/08 04:40:26;;;;;;;5.28;3.47;;;;;;;;;;5066436;28;20567;-85
2021/07/08 04:43:11;;;;;;;6.15;3.25;;;;;;;;;;5068833;28;20032;-85
2021/07/08 04:45:56;;;;;;;6.10;3.17;;;;;;;;;;5070308;28;20052;-86
2021/07/08 04:48:42;;;;;;;5.72;3.00;;;;;;;;;;5053049;28;20396;-85
2021/07/08 04:51:26;;;;;;;5.80;3.38;;;;;;;;;;5052847;28;20090;-85
2021/07/08 04:54:11;;;;;;;5.25;3.20;;;;;;;;;;5066313;28;20056;-85
2021/07/08 04:56:56;;;;;;;5.43;2.90;;;;;;;;;;5066395;28;20076;-86
2021/07/08 04:59:40;;;;;;;5.45;3.42;;;;;;;;;;5050013;28;20048;-85
2021/07/08 05:02:25;;;;;;;5.22;3.00;;;;;;;;;;5046259;28;20116;-85
2021/07/08 05:05:09;;;;;;;5.95;2.80;;;;;;;;;;5057511;28;20059;-86
2021/07/08 05:07:55;;;;;;;6.30;3.30;;;;;;;;;;5066531;28;20145;-86
2021/07/08 05:10:39;;;;;;;6.80;3.20;;;;;;;;;;5063047;28;20116;-86
2021/07/08 05:13:24;;;;;;;7.70;3.83;;;;;;;;;;5057974;28;20095;-86
2021/07/08 05:16:08;;;;;;;4.80;2.78;;;;;;;;;;5046248;28;20035;-86
2021/07/08 05:18:53;;;;;;;5.88;3.17;;;;;;;;;;5063785;28;20044;-85
2021/07/08 05:21:39;;;;;;;5.60;3.20;;;;;;;;;;5067181;28;20043;-85
2021/07/08 05:24:25;;;;;;;6.90;3.30;;;;;;;;;;5064400;28;20580;-86
2021/07/08 05:27:16;;;;;;;5.93;3.40;;;;;;;;;;5058506;28;20071;-87
2021/07/08 05:30:00;;;;;;;6.70;3.55;;;;;;;;;;5066295;28;20151;-86
2021/07/08 05:32:45;;;;;;;5.80;3.33;;;;;;;;;;5065485;28;20587;-87
2021/07/08 05:35:30;;;;;;;6.20;3.45;;;;;;;;;;5066460;28;20602;-86
2021/07/08 05:38:14;;;;;;;6.72;3.58;;;;;;;;;;5051760;28;20044;-87
2021/07/08 05:40:59;;;;;;;6.40;3.75;;;;;;;;;;5066250;28;20070;-86
2021/07/08 05:43:43;;;;;;;5.57;3.60;;;;;;;;;;5045333;28;20754;-86
2021/07/08 05:46:28;;;;;;;6.43;3.28;;;;;;;;;;5060547;28;20166;-86
2021/07/08 05:49:12;;;;;;;5.60;3.28;;;;;;;;;;5065409;28;20495;-87
2021/07/08 05:51:57;;;;;;;6.72;3.40;;;;;;;;;;5063004;28;20102;-87
2021/07/08 05:54:41;;;;;;;6.97;3.63;;;;;;;;;;5062208;28;20083;-87
2021/07/08 05:57:26;;;;;;;5.90;3.38;;;;;;;;;;5065191;28;20550;-86
2021/07/08 06:00:10;;;;;;;6.63;3.83;;;;;;;;;;5064855;28;20060;-86
2021/07/08 06:02:55;;;;;;;6.07;3.40;;;;;;;;;;5050482;28;20039;-86
2021/07/08 06:05:40;;;;;;;5.88;3.45;;;;;;;;;;5065147;28;20055;-86
2021/07/08 06:08:24;;;;;;;5.68;3.47;;;;;;;;;;5065485;28;20546;-86
2021/07/08 06:11:09;;;;;;;7.00;3.78;;;;;;;;;;5068542;28;20066;-86
2021/07/08 06:13:54;;;;;;;6.22;3.60;;;;;;;;;;5051577;28;20154;-86
2021/07/08 06:16:38;;;;;;;5.63;3.47;;;;;;;;;;5065121;28;20034;-86
2021/07/08 06:19:22;;;;;;;5.22;3.28;;;;;;;;;;5064267;28;20507;-87
2021/07/08 06:22:07;;;;;;;6.38;3.83;;;;;;;;;;5064796;28;20467;-81
2021/07/08 06:24:52;;;;;;;6.28;3.38;;;;;;;;;;5065096;28;20044;-86
2021/07/08 06:27:37;;;;;;;5.90;3.70;;;;;;;;;;5050935;28;20496;-86
2021/07/08 06:30:21;;;;;;;5.55;3.20;;;;;;;;;;5050552;28;20179;-86
2021/07/08 06:33:06;;;;;;;7.32;3.78;;;;;;;;;;5066266;28;20618;-86
2021/07/08 06:35:50;;;;;;;4.97;3.35;;;;;;;;;;5066302;28;20074;-86
2021/07/08 06:38:35;;;;;;;6.22;3.40;;;;;;;;;;5064612;28;20062;-86
2021/07/08 06:41:19;;;;;;;5.47;3.30;;;;;;;;;;5064898;28;20052;-86
2021/07/08 06:44:04;;;;;;;5.18;3.17;;;;;;;;;;5063992;28;20063;-86
2021/07/08 06:46:51;;;;;;;5.53;3.40;;;;;;;;;;5064555;28;20043;-86
2021/07/08 06:49:36;;;;;;;5.25;3.25;;;;;;;;;;5050908;28;20574;-86
2021/07/08 06:52:21;;;;;;;6.18;3.28;;;;;;;;;;5064624;28;20059;-85
2021/07/08 06:55:06;;;;;;;5.68;3.25;;;;;;;;;;5050369;28;20146;-86
2021/07/08 06:57:50;;;;;;;5.38;3.28;;;;;;;;;;5050064;28;20035;-86
2021/07/08 07:00:40;;;;;;;5.53;3.30;;;;;;;;;;5064049;28;20043;-86
2021/07/08 07:03:26;;;;;;;5.07;2.90;;;;;;;;;;5050723;28;20075;-85
2021/07/08 07:06:11;;;;;;;4.95;3.63;;;;;;;;;;5064119;28;20038;-86
2021/07/08 07:08:56;;;;;;;5.55;3.17;;;;;;;;;;5049740;28;20063;-85
2021/07/08 07:11:40;;;;;;;5.20;3.20;;;;;;;;;;5065406;28;20170;-81
2021/07/08 07:14:25;;;;;;;10.70;3.50;;;;;;;;;;5050209;28;20040;-87
2021/07/08 07:17:10;;;;;;;4.00;2.78;;;;;;;;;;5049778;28;20059;-87
2021/07/08 07:19:54;;;;;;;4.72;2.83;;;;;;;;;;5063833;28;20051;-85
2021/07/08 07:22:39;;;;;;;5.00;2.95;;;;;;;;;;5062943;28;20043;-86
2021/07/08 07:25:25;;;;;;;4.18;2.83;;;;;;;;;;5063488;28;20164;-86
2021/07/08 07:28:09;;;;;;;5.13;2.80;;;;;;;;;;5049534;28;20039;-86
2021/07/08 07:30:54;;;;;;;4.85;3.03;;;;;;;;;;5049462;28;20094;-87
2021/07/08 07:33:42;;;;;;;4.65;2.67;;;;;;;;;;5064434;28;20047;-86
2021/07/08 07:36:26;;;;;;;4.75;2.65;;;;;;;;;;5064267;28;20059;-86
2021/07/08 07:39:11;;;;;;;4.88;2.65;;;;;;;;;;5063923;28;20134;-86
2021/07/08 07:41:56;;;;;;;4.70;2.83;;;;;;;;;;5064408;28;20079;-86
2021/07/08 07:44:44;;;;;;;5.20;2.55;;;;;;;;;;5043730;28;20043;-87
2021/07/08 07:47:29;;;;;;;4.65;2.75;;;;;;;;;;5030145;28;20163;-85
2021/07/08 07:50:13;;;;;;;6.35;2.83;;;;;;;;;;5044029;28;20051;-86
2021/07/08 07:52:58;;;;;;;5.65;2.70;;;;;;;;;;5049909;28;20068;-87
2021/07/08 07:55:42;;;;;;;5.20;2.55;;;;;;;;;;5045487;28;20539;-86
2021/07/08 07:58:27;;;;;;;4.53;2.90;;;;;;;;;;5039128;28;20043;-86
2021/07/08 08:01:11;;;;;;;4.15;2.67;;;;;;;;;;5047998;28;20074;-87
2021/07/08 08:03:57;;;;;;;4.78;2.90;;;;;;;;;;5058778;28;20125;-86
2021/07/08 08:09:45;;;;;;;4.18;2.53;;;;;;;;;;5069280;28;20094;-86
2021/07/08 08:12:29;;;;;;;5.53;2.90;;;;;;;;;;5053254;28;20472;-85
2021/07/08 08:15:15;;;;;;;4.22;2.67;;;;;;;;;;5047239;28;20120;-86
2021/07/08 08:18:03;;;;;;;4.35;2.55;;;;;;;;;;5050456;28;20044;-86
2021/07/08 08:20:47;;;;;;;4.35;2.80;;;;;;;;;;5066882;28;20060;-86
2021/07/08 08:23:32;;;;;;;5.15;3.13;;;;;;;;;;5067029;28;20039;-85
2021/07/08 08:26:16;;;;;;;5.60;2.80;;;;;;;;;;5053267;28;20120;-87
2021/07/08 08:29:01;;;;;;;4.93;3.05;;;;;;;;;;5066132;28;20102;-86
2021/07/08 08:31:45;;;;;;;5.38;3.10;;;;;;;;;;5067514;28;20043;-86
2021/07/08 08:34:30;;;;;;;3.45;2.38;;;;;;;;;;5066857;28;20089;-85
2021/07/08 08:37:14;;;;;;;4.43;2.83;;;;;;;;;;5066189;28;20039;-86
2021/07/08 08:39:59;;;;;;;4.40;2.75;;;;;;;;;;5052404;28;20105;-87
2021/07/08 08:42:44;;;;;;;4.30;3.00;;;;;;;;;;5052788;28;20123;-86
2021/07/08 08:45:29;;;;;;;4.55;2.80;;;;;;;;;;5068860;28;20043;-87
2021/07/08 08:48:14;;;;;;;4.97;3.08;;;;;;;;;;5046829;28;20047;-83
2021/07/08 08:50:58;;;;;;;4.32;2.75;;;;;;;;;;5060422;28;20083;-86
2021/07/08 08:53:43;;;;;;;5.10;3.10;;;;;;;;;;5052461;28;20553;-86
2021/07/08 08:56:28;;;;;;;4.50;2.80;;;;;;;;;;5052310;28;20042;-87
2021/07/08 08:59:12;;;;;;;5.13;3.35;;;;;;;;;;5050610;28;20428;-87
2021/07/08 09:02:13;;;;;;;4.93;2.88;;;;;;;;;;5044821;28;20051;-86
2021/07/08 09:04:57;;;;;;;5.25;2.85;;;;;;;;;;5063689;28;20040;-87
2021/07/08 09:07:42;;;;;;;4.22;2.72;;;;;;;;;;5061000;28;21205;-86
2021/07/08 09:10:26;;;;;;;5.25;2.80;;;;;;;;;;5063520;28;20546;-83
2021/07/08 09:13:11;;;;;;;5.10;3.40;;;;;;;;;;5046276;28;20058;-84
2021/07/08 09:15:55;;;;;;;4.13;2.67;;;;;;;;;;5062779;28;20090;-87
2021/07/08 09:18:43;;;;;;;5.47;2.92;;;;;;;;;;5064221;28;20730;-86
2021/07/08 09:21:29;;;;;;;6.40;3.15;;;;;;;;;;5061533;28;20122;-87
2021/07/08 09:24:17;;;;;;;5.05;3.03;;;;;;;;;;5057223;28;20047;-86
2021/07/08 09:27:02;;;;;;;4.80;3.30;;;;;;;;;;5048947;28;20039;-86
2021/07/08 09:29:49;;;;;;;4.70;3.30;;;;;;;;;;5057879;28;20044;-86
2021/07/08 09:32:33;;;;;;;5.18;2.88;;;;;;;;;;5054709;28;20818;-86
2021/07/08 09:35:31;;;;;;;5.47;2.90;;;;;;;;;;5060071;28;20468;-85
2021/07/08 09:38:24;;;;;;;4.20;2.58;;;;;;;;;;5056661;28;20598;-85
2021/07/08 09:41:13;;;;;;;5.43;2.83;;;;;;;;;;5063714;28;20433;-86
2021/07/08 09:43:58;;;;;;;3.90;2.42;;;;;;;;;;5055743;28;20082;-87
2021/07/08 09:46:43;;;;;;;5.07;3.10;;;;;;;;;;5043802;28;20123;-84
2021/07/08 09:49:28;;;;;;;5.10;3.10;;;;;;;;;;5045520;28;20052;-85
2021/07/08 09:52:13;;;;;;;4.70;2.83;;;;;;;;;;5046363;28;20114;-85
2021/07/08 09:57:45;;;;;;;4.03;2.40;;;;;;;;;;5061558;28;20098;-85
2021/07/08 10:00:32;;;;;;;4.63;2.88;;;;;;;;;;5031577;28;20099;-85
2021/07/08 10:03:16;;;;;;;4.30;2.55;;;;;;;;;;5061263;28;20032;-84
2021/07/08 10:06:01;;;;;;;4.40;3.00;;;;;;;;;;5064417;28;20086;-85
2021/07/08 10:08:46;;;;;;;3.90;2.78;;;;;;;;;;5059551;28;20081;-84
2021/07/08 10:11:30;;;;;;;3.83;2.45;;;;;;;;;;5049459;28;20043;-85
2021/07/08 10:14:16;;;;;;;4.32;2.83;;;;;;;;;;5050417;28;20128;-85
2021/07/08 10:17:00;;;;;;;4.60;2.90;;;;;;;;;;5065521;28;20531;-85
2021/07/08 10:19:45;;;;;;;4.55;2.55;;;;;;;;;;5043965;28;20048;-85
2021/07/08 10:22:30;;;;;;;3.58;2.47;;;;;;;;;;5044769;28;20115;-86
2021/07/08 10:25:15;;;;;;;4.75;2.75;;;;;;;;;;5055409;28;20055;-84
2021/07/08 10:28:00;;;;;;;4.05;2.55;;;;;;;;;;5064090;28;20039;-85
2021/07/08 10:30:45;;;;;;;5.13;2.92;;;;;;;;;;5039024;28;20039;-86
2021/07/08 10:33:30;;;;;;;3.97;2.45;;;;;;;;;;5063014;28;20051;-86
2021/07/08 10:36:23;;;;;;;3.83;2.65;;;;;;;;;;5047787;28;20465;-86
2021/07/08 10:39:15;;;;;;;3.28;2.40;;;;;;;;;;5061260;28;20121;-82
2021/07/08 10:41:59;;;;;;;3.88;2.60;;;;;;;;;;5062144;28;20131;-86
2021/07/08 10:44:48;;;;;;;4.95;2.58;;;;;;;;;;5047891;28;20035;-84
2021/07/08 10:47:32;;;;;;;4.72;2.67;;;;;;;;;;5063976;28;20467;-85
2021/07/08 10:50:36;;;;;;;4.25;2.83;;;;;;;;;;5064220;28;20047;-85
2021/07/08 10:53:21;;;;;;;3.60;2.45;;;;;;;;;;5055877;28;20086;-86
2021/07/08 10:56:08;;;;;;;4.63;2.60;;;;;;;;;;5054321;28;20051;-85
2021/07/08 10:58:56;;;;;;;4.15;2.40;;;;;;;;;;5062452;28;20042;-84
2021/07/08 11:01:42;;;;;;;3.40;2.42;;;;;;;;;;5047632;28;20047;-84
2021/07/08 11:04:47;;;;;;;3.67;2.50;;;;;;;;;;5065141;28;20089;-85
2021/07/08 11:07:31;;;;;;;4.18;2.40;;;;;;;;;;5056109;28;20082;-84
2021/07/08 11:10:18;;;;;;;3.05;2.25;;;;;;;;;;5062534;28;20039;-85
2021/07/08 11:13:21;;;;;;;4.30;2.55;;;;;;;;;;5060826;28;20040;-86
2021/07/08 11:16:06;;;;;;;4.30;2.47;;;;;;;;;;5059241;28;20357;-82
2021/07/08 11:19:00;;;;;;;3.88;2.58;;;;;;;;;;5058559;28;20039;-84
2021/07/08 11:21:51;;;;;;;4.65;2.33;;;;;;;;;;5062511;28;20043;-85
2021/07/08 11:24:46;;;;;;;3.72;2.60;;;;;;;;;;5064121;28;20046;-81
2021/07/08 11:27:35;;;;;;;3.30;2.33;;;;;;;;;;5063062;28;20043;-81
2021/07/08 11:30:24;;;;;;;3.28;2.22;;;;;;;;;;5063532;28;20081;-80
2021/07/08 11:33:14;;;;;;;4.50;2.40;;;;;;;;;;5063343;28;20043;-81
2021/07/08 11:36:00;;;;;;;3.33;2.20;;;;;;;;;;5047867;28;20040;-81
2021/07/08 11:38:45;;;;;;;3.72;2.60;;;;;;;;;;5047862;28;20124;-80
2021/07/08 11:41:30;;;;;;;3.33;2.30;;;;;;;;;;5063454;28;20169;-80
2021/07/08 11:44:14;;;;;;;4.30;2.35;;;;;;;;;;5063230;28;20047;-82
2021/07/08 11:46:59;;;;;;;3.80;2.00;;;;;;;;;;5048094;28;20035;-81
2021/07/08 11:49:43;;;;;;;3.42;2.30;;;;;;;;;;5043827;28;20063;-82
2021/07/08 11:52:31;;;;;;;3.85;2.20;;;;;;;;;;5058758;28;20885;-82
2021/07/08 11:55:16;;;;;;;3.63;2.17;;;;;;;;;;5063416;28;20122;-81
2021/07/08 11:58:04;;;;;;;4.70;2.40;;;;;;;;;;5051805;28;20111;-79
2021/07/08 12:00:49;;;;;;;3.22;2.45;;;;;;;;;;5044721;28;20080;-82
2021/07/08 12:03:39;;;;;;;3.35;2.40;;;;;;;;;;5043650;28;20673;-82
2021/07/08 12:06:26;;;;;;;5.05;2.25;;;;;;;;;;5045221;28;20044;-81
2021/07/08 12:09:10;;;;;;;3.97;2.78;;;;;;;;;;5045759;28;20079;-81
2021/07/08 12:11:58;;;;;;;3.50;2.35;;;;;;;;;;5047617;28;20043;-82
2021/07/08 12:14:42;;;;;;;3.45;2.30;;;;;;;;;;5062241;28;20111;-82
2021/07/08 12:17:28;;;;;;;3.25;2.22;;;;;;;;;;5062906;28;20539;-82
2021/07/08 12:20:12;;;;;;;3.55;2.55;;;;;;;;;;5062427;28;20059;-82
2021/07/08 12:22:58;;;;;;;3.55;2.33;;;;;;;;;;5062217;28;20040;-82
2021/07/08 12:25:43;;;;;;;3.45;2.63;;;;;;;;;;5062483;28;20063;-82
2021/07/08 12:28:28;;;;;;;3.00;2.40;;;;;;;;;;5048825;28;20043;-82
2021/07/08 12:31:12;;;;;;;4.00;2.50;;;;;;;;;;5048890;28;20052;-82
2021/07/08 12:34:02;;;;;;;3.58;2.30;;;;;;;;;;5040860;28;20064;-83
2021/07/08 12:36:46;;;;;;;3.60;2.58;;;;;;;;;;5048189;28;20040;-84
2021/07/08 12:39:31;;;;;;;4.50;2.78;;;;;;;;;;5061364;28;20048;-81
2021/07/08 12:42:16;;;;;;;3.58;2.35;;;;;;;;;;5044850;28;20098;-83
2021/07/08 12:45:02;;;;;;;3.45;2.50;;;;;;;;;;5035814;28;20040;-82
2021/07/08 12:47:48;;;;;;;3.85;2.70;;;;;;;;;;5046091;28;20044;-84
2021/07/08 12:50:34;;;;;;;3.55;2.40;;;;;;;;;;5050803;28;20404;-81
2021/07/08 12:53:19;;;;;;;3.85;2.78;;;;;;;;;;5066207;28;20098;-81
2021/07/08 12:56:10;;;;;;;3.42;2.58;;;;;;;;;;5065231;28;20097;-80
2021/07/08 12:58:57;;;;;;;3.95;2.88;;;;;;;;;;5041134;28;20475;-81
2021/07/08 13:01:42;;;;;;;3.97;2.85;;;;;;;;;;5056980;28;20106;-83
2021/07/08 13:04:33;;;;;;;3.58;2.38;;;;;;;;;;5066330;28;20043;-83
2021/07/08 13:07:22;;;;;;;3.10;2.50;;;;;;;;;;5048062;28;20051;-83
2021/07/08 13:10:07;;;;;;;4.45;2.67;;;;;;;;;;5050155;28;20047;-82
2021/07/08 13:12:58;;;;;;;3.30;2.25;;;;;;;;;;5043421;28;20102;-83
2021/07/08 13:15:44;;;;;;;3.87;2.80;;;;;;;;;;5032489;28;20051;-84
2021/07/08 13:18:32;;;;;;;4.13;2.42;;;;;;;;;;5032202;28;20496;-83
2021/07/08 13:21:18;;;;;;;3.80;2.63;;;;;;;;;;5047649;28;20094;-84
2021/07/08 13:24:02;;;;;;;3.78;2.42;;;;;;;;;;5063894;28;20101;-83
2021/07/08 13:26:47;;;;;;;2.90;2.33;;;;;;;;;;5065923;28;20496;-83
2021/07/08 13:29:31;;;;;;;3.05;2.55;;;;;;;;;;5051775;28;20047;-83
2021/07/08 13:32:19;;;;;;;3.70;2.92;;;;;;;;;;5051834;28;20112;-83
2021/07/08 13:35:04;;;;;;;3.78;2.75;;;;;;;;;;5065531;28;20129;-84
2021/07/08 13:37:49;;;;;;;3.53;2.80;;;;;;;;;;5064049;28;20512;-84
2021/07/08 13:40:33;;;;;;;3.47;2.88;;;;;;;;;;5035202;28;20550;-83
2021/07/08 13:43:18;;;;;;;4.05;2.60;;;;;;;;;;5064849;28;20112;-83
2021/07/08 13:46:15;;;;;;;4.22;2.80;;;;;;;;;;5064025;28;20071;-83
2021/07/08 13:49:06;;;;;;;3.53;2.80;;;;;;;;;;5065670;28;20987;-83
2021/07/08 13:51:54;;;;;;;4.65;2.97;;;;;;;;;;5066691;28;20117;-83
2021/07/08 13:54:40;;;;;;;3.72;2.60;;;;;;;;;;5064534;28;20682;-82
2021/07/08 13:57:24;;;;;;;3.35;2.80;;;;;;;;;;5066320;28;20070;-84
2021/07/08 14:00:09;;;;;;;4.30;2.60;;;;;;;;;;5065109;28;20052;-83
2021/07/08 14:02:54;;;;;;;3.53;2.70;;;;;;;;;;5045687;28;20091;-80
2021/07/08 14:05:38;;;;;;;5.20;2.58;;;;;;;;;;5054907;28;20106;-83
2021/07/08 14:08:26;;;;;;;3.67;2.75;;;;;;;;;;5057205;28;20067;-83
2021/07/08 14:11:11;;;;;;;3.40;2.70;;;;;;;;;;5045824;28;20405;-84
2021/07/08 14:13:56;;;;;;;4.45;3.00;;;;;;;;;;5063667;28;20035;-83
2021/07/08 14:16:41;;;;;;;3.13;2.80;;;;;;;;;;5041773;28;20083;-84
2021/07/08 14:19:26;;;;;;;3.80;2.97;;;;;;;;;;5044957;28;20043;-82
2021/07/08 14:22:10;;;;;;;3.42;2.55;;;;;;;;;;5043787;28;20602;-82
2021/07/08 14:24:55;;;;;;;3.20;2.70;;;;;;;;;;5050350;28;20102;-82
2021/07/08 14:27:39;;;;;;;3.95;2.92;;;;;;;;;;5049230;28;20069;-83
2021/07/08 14:30:26;;;;;;;3.45;2.47;;;;;;;;;;5066000;28;20610;-82
2021/07/08 14:33:11;;;;;;;4.10;2.60;;;;;;;;;;5057501;28;20146;-85
2021/07/08 14:35:55;;;;;;;4.70;2.65;;;;;;;;;;5064302;28;21925;-85
2021/07/08 14:38:40;;;;;;;3.13;2.58;;;;;;;;;;5063143;28;20047;-86
2021/07/08 14:41:25;;;;;;;3.92;2.65;;;;;;;;;;5058672;28;20516;-86
2021/07/08 14:44:20;;;;;;;2.92;2.58;;;;;;;;;;5063542;28;20071;-85
2021/07/08 14:47:05;;;;;;;3.88;2.60;;;;;;;;;;5062855;28;20094;-84
2021/07/08 14:49:50;;;;;;;3.70;2.92;;;;;;;;;;5063970;28;20046;-84
2021/07/08 14:52:35;;;;;;;3.97;2.78;;;;;;;;;;5061017;28;20035;-81
2021/07/08 14:55:20;;;;;;;3.92;2.53;;;;;;;;;;5064185;28;20102;-81
2021/07/08 14:58:05;;;;;;;3.67;2.67;;;;;;;;;;5037574;28;20063;-80
2021/07/08 15:00:49;;;;;;;3.70;2.70;;;;;;;;;;5054319;28;20047;-80
2021/07/08 15:03:34;;;;;;;2.97;2.60;;;;;;;;;;5046132;28;20032;-81
2021/07/08 15:06:18;;;;;;;4.05;2.95;;;;;;;;;;5052740;28;20043;-80
2021/07/08 15:09:03;;;;;;;3.10;2.42;;;;;;;;;;5056910;28;20082;-80
2021/07/08 15:11:48;;;;;;;4.65;2.80;;;;;;;;;;5046166;28;20093;-81
2021/07/08 15:14:33;;;;;;;3.92;2.60;;;;;;;;;;5061693;28;20522;-80
2021/07/08 15:17:18;;;;;;;3.28;2.40;;;;;;;;;;5061704;28;20047;-80
2021/07/08 15:20:06;;;;;;;3.47;2.60;;;;;;;;;;5063517;28;20086;-81
2021/07/08 15:22:51;;;;;;;3.03;2.63;;;;;;;;;;5062271;28;20093;-80
2021/07/08 15:25:35;;;;;;;3.28;2.50;;;;;;;;;;5060158;28;20086;-80
2021/07/08 15:28:20;;;;;;;3.75;2.75;;;;;;;;;;5059777;28;20032;-81
2021/07/08 15:31:05;;;;;;;3.35;2.58;;;;;;;;;;5060647;28;20547;-80
2021/07/08 15:33:57;;;;;;;3.65;2.70;;;;;;;;;;5063664;28;20039;-81
2021/07/08 15:36:43;;;;;;;3.78;3.05;;;;;;;;;;5057219;28;20511;-80
2021/07/08 15:39:28;;;;;;;3.83;2.75;;;;;;;;;;5062252;28;20060;-81
2021/07/08 15:42:16;;;;;;;3.22;2.70;;;;;;;;;;5063448;28;20569;-80
2021/07/08 15:45:00;;;;;;;3.53;2.80;;;;;;;;;;5063598;28;20135;-81
2021/07/08 15:47:45;;;;;;;3.60;2.60;;;;;;;;;;5063139;28;20470;-80
2021/07/08 15:50:30;;;;;;;3.25;2.88;;;;;;;;;;5080682;28;20074;-81
2021/07/08 15:53:16;;;;;;;2.80;2.40;;;;;;;;;;5076462;28;20749;-81
2021/07/08 15:56:01;;;;;;;3.63;2.67;;;;;;;;;;5063581;28;20032;-81
2021/07/08 15:58:45;;;;;;;4.30;3.00;;;;;;;;;;5042622;28;20512;-81
2021/07/08 16:01:29;;;;;;;4.25;2.65;;;;;;;;;;5040815;28;20115;-80
2021/07/08 16:04:14;;;;;;;3.67;2.67;;;;;;;;;;5063567;28;20483;-80
2021/07/08 16:06:58;;;;;;;3.10;2.55;;;;;;;;;;5059250;28;20043;-81
2021/07/08 16:09:43;;;;;;;3.15;2.53;;;;;;;;;;5060770;28;20039;-80
2021/07/08 16:12:28;;;;;;;3.00;2.47;;;;;;;;;;5061031;28;20093;-81
2021/07/08 16:15:12;;;;;;;3.10;2.80;;;;;;;;;;5049070;28;20047;-80
2021/07/08 16:17:57;;;;;;;3.20;2.60;;;;;;;;;;5066727;28;20051;-80
2021/07/08 16:20:42;;;;;;;3.83;2.50;;;;;;;;;;5051923;28;20397;-81
2021/07/08 16:23:27;;;;;;;4.28;2.33;;;;;;;;;;5065329;28;20047;-80
2021/07/08 16:26:11;;;;;;;4.25;2.88;;;;;;;;;;5066283;28;20447;-80
2021/07/08 16:28:56;;;;;;;3.22;2.78;;;;;;;;;;5052981;28;20043;-82
2021/07/08 16:31:41;;;;;;;5.13;2.65;;;;;;;;;;5051550;28;20027;-81
2021/07/08 16:34:25;;;;;;;3.42;2.97;;;;;;;;;;5066510;28;20561;-81
2021/07/08 16:37:10;;;;;;;3.28;2.78;;;;;;;;;;5066777;28;20431;-80